Time;durP1;ratioP1;P1;durP2;ratioP2;P2;SDS_P1;SDS_P2;PMS_P1;PMS_P2;Temp;Humidity;BMP_temperature;BMP_pressure;BME280_temperature;BME280_humidity;BME280_pressure;Samples;Min_cycle;Max_cycle;Signal;HPM_P1;HPM_P2
2022/09/25 00:01:18;;;;;;;11.77;4.97;;;;;;;15.01;57.44;101140.75;5024460;23;20059;-93
2022/09/25 00:03:43;;;;;;;12.55;4.72;;;;;;;15.05;57.21;101150.28;4914991;29;20055;-94
2022/09/25 00:06:18;;;;;;;10.43;4.70;;;;;;;14.86;56.67;101115.03;4929994;29;20036;-90
2022/09/25 00:08:44;;;;;;;15.20;6.65;;;;;;;15.01;57.42;101142.59;4922361;29;20040;-94
2022/09/25 00:11:31;;;;;;;20.00;5.25;;;;;;;14.78;57.80;101095.09;4937444;29;20047;-94
2022/09/25 00:13:59;;;;;;;12.25;5.32;;;;;;;14.58;58.86;101083.38;5044549;23;20071;-90
2022/09/25 00:16:29;;;;;;;17.20;4.85;;;;;;;14.96;59.50;101137.59;5086911;23;20065;-91
2022/09/25 00:21:41;;;;;;;11.90;4.75;;;;;;;14.93;61.00;101131.59;4973714;28;20086;-96
2022/09/25 00:24:08;;;;;;;9.68;3.88;;;;;;;14.82;61.38;101105.50;4951715;29;20027;-96
2022/09/25 00:26:38;;;;;;;8.48;4.03;;;;;;;14.81;61.62;101105.63;4951079;29;20529;-94
2022/09/25 00:29:05;;;;;;;47.25;6.65;;;;;;;14.91;62.20;101129.03;4951678;28;20039;-93
2022/09/25 00:31:31;;;;;;;15.60;3.78;;;;;;;14.70;62.83;101091.25;4952408;28;20027;-92
2022/09/25 00:33:59;;;;;;;15.68;3.90;;;;;;;14.84;63.23;101127.03;4952363;28;20039;-94
2022/09/25 00:36:25;;;;;;;7.28;3.90;;;;;;;14.67;63.50;101098.78;4976823;28;20042;-92
2022/09/25 00:38:53;;;;;;;10.07;3.80;;;;;;;14.60;63.64;101086.81;5018782;23;20048;-95
2022/09/25 00:41:21;;;;;;;6.78;3.63;;;;;;;14.82;64.13;101135.31;4978247;28;20099;-93
2022/09/25 00:43:50;;;;;;;4.50;3.30;;;;;;;14.59;64.80;101102.19;5002854;23;20057;-92
2022/09/25 00:46:34;;;;;;;7.40;3.70;;;;;;;14.68;65.25;101111.31;5062675;23;20047;-91
2022/09/25 00:49:16;;;;;;;4.97;3.47;;;;;;;14.34;65.75;101064.78;4978826;28;20034;-93
2022/09/25 00:51:47;;;;;;;22.77;4.45;;;;;;;14.61;66.19;101102.91;4701522;23;20035;-94
2022/09/25 00:56:49;;;;;;;5.35;3.42;;;;;;;14.59;66.51;101096.75;5048130;23;20050;-92
2022/09/25 00:59:20;;;;;;;22.60;5.40;;;;;;;14.09;66.84;101012.03;5230866;23;20118;-90
2022/09/25 01:01:46;;;;;;;19.30;5.47;;;;;;;14.29;67.01;101044.53;5064785;23;20087;-93
2022/09/25 01:04:13;;;;;;;16.50;5.15;;;;;;;14.31;67.51;101056.09;5004586;23;20059;-90
2022/09/25 01:06:39;;;;;;;22.50;5.82;;;;;;;14.14;67.85;101030.53;4979164;28;20046;-90
2022/09/25 01:09:05;;;;;;;26.13;4.90;;;;;;;14.58;67.77;101088.81;5019898;23;20099;-91
2022/09/25 01:11:31;;;;;;;383.42;27.10;;;;;;;14.59;67.86;101082.38;4980965;28;20031;-94
2022/09/25 01:16:36;;;;;;;20.90;5.32;;;;;;;14.57;68.31;101082.53;4961077;29;20046;-91
2022/09/25 01:19:11;;;;;;;4.78;3.38;;;;;;;14.59;68.43;101101.31;4961197;29;20034;-89
2022/09/25 01:21:53;;;;;;;5.38;3.63;;;;;;;14.60;68.58;101073.25;4960258;28;20028;-90
2022/09/25 01:30:01;;;;;;;19.15;5.45;;;;;;;14.54;69.56;101081.94;5093060;23;20303;-92
2022/09/25 01:37:58;;;;;;;22.23;6.47;;;;;;;14.49;70.04;101065.28;5167853;23;20035;-91
2022/09/25 01:40:40;;;;;;;11.52;4.47;;;;;;;14.31;70.31;101026.31;5312541;23;20082;-94
2022/09/25 01:43:33;;;;;;;16.65;5.63;;;;;;;14.59;70.52;101068.84;4976790;28;20051;-94
2022/09/25 01:46:04;;;;;;;25.20;6.65;;;;;;;14.68;70.58;101076.13;4975048;29;20032;-92
2022/09/25 01:48:32;;;;;;;26.77;5.40;;;;;;;14.70;70.71;101076.84;4972383;28;20034;-91
2022/09/25 01:51:06;;;;;;;35.45;6.45;;;;;;;14.71;70.84;101075.84;4955739;28;20047;-93
2022/09/25 01:53:41;;;;;;;8.82;5.43;;;;;;;14.72;70.81;101077.56;4977112;28;20062;-90
2022/09/25 01:56:15;;;;;;;11.13;4.22;;;;;;;14.73;71.04;101073.88;4975099;28;20054;-94
2022/09/25 01:58:45;;;;;;;7.05;3.70;;;;;;;14.70;71.23;101066.03;4955404;28;20015;-93
2022/09/25 02:01:16;;;;;;;11.85;4.45;;;;;;;14.61;71.39;101056.03;4975978;28;20031;-94
2022/09/25 02:03:57;;;;;;;7.90;4.50;;;;;;;14.69;71.96;101075.13;4960356;28;20027;-94
2022/09/25 02:06:24;;;;;;;39.63;6.32;;;;;;;14.56;72.12;101052.88;4977713;28;20015;-91
2022/09/25 02:09:14;;;;;;;7.97;4.53;;;;;;;14.58;72.50;101040.06;4974036;23;20039;-88
2022/09/25 02:11:46;;;;;;;113.57;12.30;;;;;;;14.58;72.46;101032.81;4963194;28;20031;-89
2022/09/25 02:17:09;;;;;;;11.20;4.75;;;;;;;14.64;73.24;101062.03;4981760;23;20094;-88
2022/09/25 02:22:34;;;;;;;16.40;5.45;;;;;;;14.62;73.56;101073.97;4972757;28;20065;-93
2022/09/25 02:25:25;;;;;;;32.15;5.72;;;;;;;14.50;73.81;101048.00;4987649;23;20038;-89
2022/09/25 02:27:50;;;;;;;8.27;4.70;;;;;;;14.45;74.21;101044.88;4962322;28;20027;-90
2022/09/25 02:30:16;;;;;;;25.23;6.28;;;;;;;13.95;73.88;100977.22;5095859;23;20111;-90
2022/09/25 02:32:41;;;;;;;6.22;4.18;;;;;;;14.47;74.19;101051.00;4980927;28;20027;-89
2022/09/25 02:35:08;;;;;;;207.05;23.42;;;;;;;14.50;74.31;101059.69;5022239;23;20046;-94
2022/09/25 02:37:33;;;;;;;31.23;6.00;;;;;;;14.52;74.48;101052.31;4979447;28;20011;-90
2022/09/25 02:40:02;;;;;;;17.23;5.72;;;;;;;14.60;74.58;101068.72;4979751;28;20027;-92
2022/09/25 02:42:55;;;;;;;36.67;7.20;;;;;;;14.60;74.58;101067.84;4978477;28;20035;-91
2022/09/25 02:45:38;;;;;;;;;;;;;;;14.55;74.64;101067.44;4978501;28;20042;-89
2022/09/25 02:48:14;;;;;;;20.35;5.25;;;;;;;14.54;74.82;101071.97;5021634;23;19918;-91
2022/09/25 02:51:01;;;;;;;33.20;6.20;;;;;;;14.01;74.91;100987.50;4978028;28;20053;-91
2022/09/25 02:53:41;;;;;;;11.15;4.07;;;;;;;14.55;74.61;101086.38;4970370;28;20035;-93
2022/09/25 02:59:07;;;;;;;11.23;5.95;;;;;;;14.58;74.01;101089.66;5128870;23;20055;-90
2022/09/25 03:04:09;;;;;;;14.75;6.28;;;;;;;14.46;73.23;101079.09;5170275;23;20048;-94
2022/09/25 03:06:37;;;;;;;9.40;6.25;;;;;;;14.11;73.61;101004.63;4967429;28;20043;-96
2022/09/25 03:11:39;;;;;;;25.08;13.65;;;;;;;14.45;70.28;101080.06;4940499;29;20060;-93
2022/09/25 03:14:06;;;;;;;24.67;12.18;;;;;;;14.56;69.20;101090.78;4941400;29;20028;-94
2022/09/25 03:16:43;;;;;;;26.27;11.68;;;;;;;14.48;69.64;101079.78;4956048;28;20071;-91
2022/09/25 03:19:09;;;;;;;27.88;11.70;;;;;;;14.40;69.32;101068.81;4957154;28;20072;-93
2022/09/25 03:21:34;;;;;;;40.88;12.45;;;;;;;14.25;69.47;101043.09;4956945;29;20374;-91
2022/09/25 03:24:00;;;;;;;19.55;10.68;;;;;;;14.54;69.86;101092.78;4986811;23;20035;-93
2022/09/25 03:26:26;;;;;;;22.90;9.70;;;;;;;14.46;70.58;101076.38;5054242;23;20119;-91
2022/09/25 03:28:52;;;;;;;14.20;8.13;;;;;;;14.41;70.81;101082.19;4959127;28;20031;-92
2022/09/25 03:31:19;;;;;;;59.45;10.95;;;;;;;14.49;71.41;101097.75;5010399;23;20058;-95
2022/09/25 03:33:45;;;;;;;23.60;11.00;;;;;;;14.46;72.03;101087.22;4971662;28;20024;-96
2022/09/25 03:36:12;;;;;;;28.38;10.82;;;;;;;14.45;72.37;101090.91;4973105;28;20106;-93
2022/09/25 03:38:40;;;;;;;32.25;10.65;;;;;;;14.34;72.62;101080.19;4972056;28;20086;-94
2022/09/25 03:41:07;;;;;;;33.67;10.73;;;;;;;14.30;73.15;101076.88;4973690;28;20092;-93
2022/09/25 03:43:41;;;;;;;27.27;8.95;;;;;;;14.34;73.50;101075.59;4981825;23;20062;-95
2022/09/25 03:46:09;;;;;;;28.83;9.95;;;;;;;14.13;73.70;101048.59;5213108;23;20122;-90
2022/09/25 03:48:35;;;;;;;48.35;10.55;;;;;;;14.36;73.96;101087.19;5259885;23;20051;-93
2022/09/25 03:51:01;;;;;;;83.43;13.60;;;;;;;14.04;73.95;101035.91;5162778;23;20065;-91
2022/09/25 03:53:32;;;;;;;49.50;10.32;;;;;;;13.76;74.17;100998.78;5019392;23;20119;-91
2022/09/25 03:56:03;;;;;;;106.47;13.85;;;;;;;14.30;74.40;101084.13;5111072;23;20283;-89
2022/09/25 03:58:29;;;;;;;230.10;21.33;;;;;;;14.21;74.46;101057.91;5331214;23;20055;-91
2022/09/25 04:00:56;;;;;;;55.05;10.55;;;;;;;14.12;74.66;101063.16;4981290;28;20023;-90
2022/09/25 04:03:23;;;;;;;13.02;7.85;;;;;;;14.21;74.39;101084.94;4981468;28;20034;-89
2022/09/25 04:05:49;;;;;;;18.98;7.93;;;;;;;14.15;74.17;101081.81;4974722;28;20049;-83
2022/09/25 04:08:15;;;;;;;31.20;8.43;;;;;;;14.33;73.72;101105.53;4987416;28;20042;-84
2022/09/25 04:10:41;;;;;;;23.42;10.35;;;;;;;14.29;73.42;101101.34;4988567;28;20034;-85
2022/09/25 04:13:11;;;;;;;29.42;13.30;;;;;;;14.36;72.97;101121.50;4986944;28;20033;-87
2022/09/25 04:15:38;;;;;;;21.83;12.77;;;;;;;14.34;71.92;101118.06;4995678;28;20034;-83
2022/09/25 04:18:04;;;;;;;30.95;13.30;;;;;;;14.09;71.62;101071.53;4962402;28;20126;-89
2022/09/25 04:20:30;;;;;;;38.83;13.13;;;;;;;14.04;71.73;101071.06;4965952;28;20280;-83
2022/09/25 04:22:55;;;;;;;23.33;11.35;;;;;;;14.33;71.38;101111.81;4989395;28;20098;-84
2022/09/25 04:25:24;;;;;;;22.88;9.63;;;;;;;14.30;71.78;101113.88;4989947;28;20057;-84
2022/09/25 04:27:54;;;;;;;123.45;16.35;;;;;;;14.38;72.23;101119.50;4967504;28;20148;-84
2022/09/25 04:30:28;;;;;;;103.53;13.10;;;;;;;14.24;72.67;101090.09;4982464;28;20031;-84
2022/09/25 04:35:40;;;;;;;56.95;11.25;;;;;;;13.97;73.56;101055.53;4976069;28;20473;-81
2022/09/25 04:38:05;;;;;;;94.80;11.43;;;;;;;14.09;73.99;101097.72;4975055;28;20114;-80
2022/09/25 04:40:31;;;;;;;47.65;9.90;;;;;;;14.22;74.38;101113.72;4980242;28;20050;-93
2022/09/25 04:43:03;;;;;;;111.13;10.88;;;;;;;13.98;74.82;101068.03;4988603;28;20038;-91
2022/09/25 04:45:29;;;;;;;93.88;11.63;;;;;;;14.31;75.17;101123.72;4992322;28;20030;-85
2022/09/25 04:47:58;;;;;;;58.03;10.73;;;;;;;13.89;75.65;101050.78;4971463;28;20097;-83
2022/09/25 04:50:24;;;;;;;40.45;9.32;;;;;;;14.31;75.53;101115.63;4977013;28;20079;-80
2022/09/25 04:52:50;;;;;;;26.02;8.82;;;;;;;14.22;75.75;101086.66;4976015;28;20030;-81
2022/09/25 04:55:17;;;;;;;35.67;7.80;;;;;;;14.26;75.85;101088.09;4985273;28;20625;-85
2022/09/25 04:57:49;;;;;;;64.90;8.93;;;;;;;14.19;76.06;101067.00;4985460;28;20525;-84
2022/09/25 05:00:17;;;;;;;92.60;11.93;;;;;;;14.49;76.30;101111.28;4967257;28;20410;-84
2022/09/25 05:02:43;;;;;;;30.02;9.23;;;;;;;14.63;76.42;101113.59;4974836;28;20045;-87
2022/09/25 05:05:09;;;;;;;44.65;8.45;;;;;;;14.57;76.45;101098.78;4975081;28;20474;-83
2022/09/25 05:07:34;;;;;;;27.55;7.03;;;;;;;14.49;76.26;101078.81;4956492;28;20054;-78
2022/09/25 05:10:00;;;;;;;22.25;7.22;;;;;;;14.80;76.65;101110.19;4973188;28;20069;-80
2022/09/25 05:12:25;;;;;;;38.67;9.70;;;;;;;14.90;76.72;101113.78;4973223;28;20047;-80
2022/09/25 05:14:51;;;;;;;37.78;9.18;;;;;;;15.01;76.46;101112.81;4974376;28;20088;-78
2022/09/25 05:17:16;;;;;;;56.20;10.88;;;;;;;15.08;76.39;101105.81;4986056;28;20027;-82
2022/09/25 05:19:41;;;;;;;39.13;10.52;;;;;;;14.80;76.19;101053.31;4973820;28;20030;-83
2022/09/25 05:22:07;;;;;;;25.58;11.23;;;;;;;15.15;75.32;101088.84;4957634;28;20031;-77
2022/09/25 05:24:33;;;;;;;62.90;17.20;;;;;;;15.35;72.69;101107.81;4972777;28;20034;-78
2022/09/25 05:26:59;;;;;;;38.22;16.92;;;;;;;15.19;71.14;101070.47;4973970;28;20034;-77
2022/09/25 05:29:24;;;;;;;48.15;18.23;;;;;;;15.50;69.31;101107.28;4967405;28;20034;-77
2022/09/25 05:31:50;;;;;;;51.30;20.70;;;;;;;15.46;67.90;101092.25;4949642;28;20027;-75
2022/09/25 05:34:15;;;;;;;72.57;22.17;;;;;;;15.25;66.36;101051.78;4954218;28;20049;-77
2022/09/25 05:36:41;;;;;;;92.97;24.02;;;;;;;15.52;65.98;101102.56;4958317;28;20019;-75
2022/09/25 05:39:10;;;;;;;59.47;20.23;;;;;;;15.67;65.51;101105.66;4958348;28;20027;-78
2022/09/25 05:41:36;;;;;;;63.90;20.70;;;;;;;15.80;65.35;101106.22;4953984;28;20027;-75
2022/09/25 05:44:08;;;;;;;135.05;24.25;;;;;;;15.79;66.01;101097.22;4951443;28;20498;-75
2022/09/25 05:46:36;;;;;;;72.22;18.60;;;;;;;15.94;66.29;101102.16;4951783;28;20067;-74
2022/09/25 05:49:01;;;;;;;120.85;26.33;;;;;;;16.05;66.41;101116.41;4951785;28;20039;-81
2022/09/25 05:51:27;;;;;;;282.00;31.35;;;;;;;16.16;66.28;101112.66;4952876;28;20042;-87
2022/09/25 05:53:53;;;;;;;133.88;23.35;;;;;;;16.01;66.04;101073.44;4954271;28;20023;-82
2022/09/25 05:56:19;;;;;;;50.67;20.42;;;;;;;16.02;66.17;101059.75;4953297;28;20027;-83
2022/09/25 05:58:46;;;;;;;60.63;20.27;;;;;;;16.27;66.05;101097.03;4955941;28;20426;-87
2022/09/25 06:01:12;;;;;;;82.55;21.40;;;;;;;16.42;66.05;101104.69;4966749;28;20034;-89
2022/09/25 06:03:37;;;;;;;84.90;20.83;;;;;;;16.64;65.48;101123.31;4964003;28;20038;-90
2022/09/25 06:06:03;;;;;;;141.25;31.33;;;;;;;16.57;64.92;101105.94;4959180;28;20450;-90
2022/09/25 06:08:32;;;;;;;74.82;24.23;;;;;;;16.69;64.46;101121.00;4959311;28;20064;-88
2022/09/25 06:10:59;;;;;;;45.30;22.45;;;;;;;16.74;63.29;101103.22;4959200;28;20079;-92
2022/09/25 06:13:25;;;;;;;52.50;22.83;;;;;;;16.79;62.38;101086.47;4943885;28;20031;-88
2022/09/25 06:15:51;;;;;;;71.45;23.73;;;;;;;16.71;61.41;101059.22;4962729;28;20031;-90
2022/09/25 06:18:22;;;;;;;59.13;23.50;;;;;;;16.86;59.91;101079.41;4963366;28;20031;-92
2022/09/25 06:20:49;;;;;;;62.00;24.15;;;;;;;17.17;59.46;101118.78;4948800;28;20027;-90
2022/09/25 06:23:14;;;;;;;59.28;24.27;;;;;;;17.34;59.15;101133.38;4962880;28;20027;-91
2022/09/25 06:25:40;;;;;;;50.97;23.55;;;;;;;17.42;59.09;101123.47;4942832;28;20063;-91
2022/09/25 06:28:06;;;;;;;81.47;27.58;;;;;;;17.55;58.22;101120.34;4960327;28;20129;-89
2022/09/25 06:30:34;;;;;;;66.85;26.02;;;;;;;17.37;58.73;101079.53;4959773;28;20031;-90
2022/09/25 06:33:06;;;;;;;50.40;20.02;;;;;;;17.71;59.23;101108.72;4961384;28;20039;-89
2022/09/25 06:35:33;;;;;;;44.20;14.25;;;;;;;17.70;58.67;101099.75;4961071;28;20047;-88
2022/09/25 06:38:00;;;;;;;110.65;68.10;;;;;;;17.81;58.77;101087.72;4960042;28;20407;-90
2022/09/25 06:40:27;;;;;;;43.42;23.88;;;;;;;17.70;58.67;101055.34;4942357;28;20027;-91
2022/09/25 06:42:58;;;;;;;14.57;9.63;;;;;;;17.68;57.99;101032.88;4995824;23;20031;-88
2022/09/25 06:45:25;;;;;;;28.35;15.05;;;;;;;18.15;57.37;101090.47;4976846;28;20039;-88
2022/09/25 06:47:56;;;;;;;49.97;12.30;;;;;;;18.38;56.83;101118.81;5003234;23;20167;-93
2022/09/25 06:50:24;;;;;;;32.38;8.48;;;;;;;18.37;56.08;101107.09;4962096;28;20023;-87
2022/09/25 06:52:50;;;;;;;19.65;6.55;;;;;;;18.37;54.73;101096.22;4980372;28;20091;-92
2022/09/25 06:55:15;;;;;;;23.50;8.80;;;;;;;18.59;54.73;101126.63;4981814;28;20019;-88
2022/09/25 06:57:41;;;;;;;33.70;9.88;;;;;;;18.64;54.54;101124.25;4982176;28;20030;-87
2022/09/25 07:00:07;;;;;;;38.40;8.38;;;;;;;18.67;54.34;101130.25;4986957;28;20533;-79
2022/09/25 07:05:17;;;;;;;26.90;8.52;;;;;;;18.66;53.69;101097.69;4988421;28;20050;-80
2022/09/25 07:07:44;;;;;;;31.50;8.68;;;;;;;18.93;53.12;101120.09;4997830;28;20026;-81
2022/09/25 07:10:09;;;;;;;25.67;6.50;;;;;;;18.80;52.82;101092.47;4974512;28;20118;-85
2022/09/25 07:12:35;;;;;;;13.88;8.85;;;;;;;18.96;52.39;101102.53;4957310;28;20070;-82
2022/09/25 07:15:01;;;;;;;21.38;9.57;;;;;;;19.07;52.60;101095.94;4943281;28;20094;-82
2022/09/25 07:17:26;;;;;;;35.20;12.60;;;;;;;18.96;52.21;101065.22;4946057;28;20023;-83
2022/09/25 07:19:52;;;;;;;18.50;8.88;;;;;;;19.30;51.93;101100.53;4956678;28;20066;-81
2022/09/25 07:22:17;;;;;;;21.98;10.30;;;;;;;19.43;51.93;101117.31;4955687;28;20447;-81
2022/09/25 07:24:43;;;;;;;267.67;24.73;;;;;;;19.57;51.23;101112.19;4958677;28;20031;-80
2022/09/25 07:27:08;;;;;;;23.80;10.50;;;;;;;19.54;51.26;101097.00;4957968;28;20566;-82
2022/09/25 07:29:34;;;;;;;20.35;10.52;;;;;;;19.64;51.04;101097.69;4954626;28;20110;-81
2022/09/25 07:32:00;;;;;;;22.63;10.68;;;;;;;19.71;50.71;101089.66;4955385;28;20027;-83
2022/09/25 07:34:26;;;;;;;31.48;11.70;;;;;;;19.95;50.41;101111.44;4955696;28;20031;-77
2022/09/25 07:36:53;;;;;;;31.45;13.52;;;;;;;20.01;49.95;101113.50;4955394;28;20038;-76
2022/09/25 07:39:18;;;;;;;32.97;15.63;;;;;;;20.08;49.39;101111.78;4954420;28;20030;-85
2022/09/25 07:41:44;;;;;;;41.63;18.73;;;;;;;20.18;49.24;101115.16;4955806;28;20023;-86
2022/09/25 07:44:09;;;;;;;32.17;17.65;;;;;;;20.25;48.99;101107.09;4955546;28;20031;-89
2022/09/25 07:46:35;;;;;;;26.02;14.52;;;;;;;20.33;49.08;101105.25;4956596;28;20098;-87
2022/09/25 07:49:01;;;;;;;34.95;13.65;;;;;;;20.39;48.70;101101.81;4956454;28;20134;-83
2022/09/25 07:51:26;;;;;;;29.30;12.70;;;;;;;20.42;48.24;101109.66;4955584;28;20535;-87
2022/09/25 07:53:52;;;;;;;35.50;13.60;;;;;;;20.44;48.13;101091.19;4940763;28;20039;-89
2022/09/25 07:56:18;;;;;;;37.72;17.08;;;;;;;20.69;47.92;101112.94;4938666;29;20146;-81
2022/09/25 07:58:44;;;;;;;31.80;16.30;;;;;;;20.60;47.93;101082.94;4954863;28;20058;-85
2022/09/25 08:01:11;;;;;;;17.05;11.07;;;;;;;20.78;48.27;101114.59;4954077;28;20031;-82
2022/09/25 08:03:37;;;;;;;78.90;13.88;;;;;;;20.56;49.13;101102.56;4954316;28;20035;-86
2022/09/25 08:06:08;;;;;;;30.27;9.93;;;;;;;20.46;49.43;101110.97;4939259;29;20023;-88
2022/09/25 08:08:34;;;;;;;139.38;17.05;;;;;;;20.31;49.96;101079.97;4940648;28;20051;-85
2022/09/25 08:11:01;;;;;;;54.30;12.85;;;;;;;20.41;49.50;101107.94;4956557;29;20041;-85
2022/09/25 08:13:27;;;;;;;56.25;12.77;;;;;;;20.45;49.70;101109.31;4969479;29;20035;-83
2022/09/25 08:15:53;;;;;;;94.50;13.40;;;;;;;20.50;50.08;101085.00;4966732;28;20510;-85
2022/09/25 08:18:19;;;;;;;39.97;9.77;;;;;;;20.74;50.20;101102.31;4945786;28;20035;-83
2022/09/25 08:20:44;;;;;;;124.97;13.95;;;;;;;20.51;50.25;101081.25;4969625;28;20050;-83
2022/09/25 08:23:10;;;;;;;342.00;27.75;;;;;;;20.76;50.07;101103.84;4980430;28;20121;-82
2022/09/25 08:25:35;;;;;;;26.95;5.95;;;;;;;20.55;50.02;101098.97;4983175;28;20096;-84
2022/09/25 08:28:01;;;;;;;90.30;7.97;;;;;;;20.48;50.91;101092.56;4979852;28;20102;-86
2022/09/25 08:30:28;;;;;;;23.13;7.10;;;;;;;20.66;51.18;101105.97;4966741;28;20045;-86
2022/09/25 08:32:53;;;;;;;30.88;6.70;;;;;;;20.56;51.54;101072.50;4937485;28;20047;-83
2022/09/25 08:35:19;;;;;;;78.57;9.10;;;;;;;20.74;51.28;101092.22;4964333;28;20132;-82
2022/09/25 08:37:45;;;;;;;51.10;9.80;;;;;;;20.86;51.77;101096.25;4972877;28;20026;-82
2022/09/25 08:40:19;;;;;;;70.47;8.40;;;;;;;20.90;51.91;101091.28;4972473;28;20058;-80
2022/09/25 08:42:48;;;;;;;22.55;6.13;;;;;;;20.89;52.48;101073.16;4971815;28;20454;-83
2022/09/25 08:51:15;;;;;;;190.10;14.90;;;;;;;20.63;53.26;101068.03;4972587;28;20127;-81
2022/09/25 08:53:43;;;;;;;131.05;12.23;;;;;;;20.76;53.32;101092.06;4974319;28;20051;-81
2022/09/25 08:56:14;;;;;;;24.10;5.88;;;;;;;20.51;53.44;101080.41;4908625;28;20513;-86
2022/09/25 08:58:43;;;;;;;38.70;6.38;;;;;;;20.40;54.00;101054.31;4972698;28;20031;-84
2022/09/25 09:01:53;;;;;;;23.85;6.30;;;;;;;20.75;53.69;101090.34;4972817;28;20138;-83
2022/09/25 09:04:27;;;;;;;66.05;9.23;;;;;;;20.52;54.14;101066.53;4903657;29;20048;-84
2022/09/25 09:07:02;;;;;;;26.55;5.43;;;;;;;20.32;54.38;100999.72;4902011;29;20649;-83
2022/09/25 09:09:38;;;;;;;132.45;14.15;;;;;;;20.91;53.49;101057.44;4894551;29;20519;-87
2022/09/25 09:12:12;;;;;;;8.65;5.45;;;;;;;21.13;53.25;101070.28;4878173;29;20567;-86
2022/09/25 09:14:44;;;;;;;21.00;5.20;;;;;;;21.24;52.34;101072.63;4901080;29;20048;-85
2022/09/25 09:17:23;;;;;;;13.57;3.85;;;;;;;21.33;51.32;101068.78;4902434;29;20647;-85
2022/09/25 09:20:01;;;;;;;59.17;6.90;;;;;;;21.30;51.66;101055.47;4901352;29;20078;-84
2022/09/25 09:22:34;;;;;;;10.38;5.07;;;;;;;21.26;52.23;101065.06;4879231;29;20048;-83
2022/09/25 09:25:06;;;;;;;15.45;5.03;;;;;;;21.31;51.86;101072.75;4885097;29;20132;-90
2022/09/25 09:27:55;;;;;;;82.82;9.32;;;;;;;21.41;51.57;101068.72;4898069;29;20145;-88
2022/09/25 09:30:50;;;;;;;21.50;5.57;;;;;;;21.52;50.94;101049.13;4909452;29;20051;-90
2022/09/25 09:33:15;;;;;;;295.15;23.73;;;;;;;21.55;49.12;101070.66;4862876;29;20047;-83
2022/09/25 09:36:06;;;;;;;56.53;6.53;;;;;;;21.39;51.03;101054.38;4856921;29;20054;-77
2022/09/25 09:38:41;;;;;;;404.52;25.70;;;;;;;21.38;51.77;101025.28;4854126;29;20136;-79
2022/09/25 09:41:25;;;;;;;17.70;5.45;;;;;;;21.65;52.74;101060.25;4857963;29;20050;-85
2022/09/25 09:44:05;;;;;;;35.45;5.78;;;;;;;21.64;53.06;101039.41;4861398;29;20049;-84
2022/09/25 09:46:55;;;;;;;26.23;5.78;;;;;;;21.49;53.45;100997.50;4985174;23;20055;-82
2022/09/25 09:49:32;;;;;;;34.63;6.43;;;;;;;21.57;55.27;101007.50;4959293;28;20062;-87
2022/09/25 09:52:08;;;;;;;12.18;4.65;;;;;;;21.58;57.42;101015.53;4929404;28;20503;-80
2022/09/25 09:54:37;;;;;;;66.88;7.32;;;;;;;21.80;58.01;101037.56;4951631;28;20049;-85
2022/09/25 09:57:12;;;;;;;12.43;4.10;;;;;;;21.47;59.23;101018.69;4973047;28;20090;-88
2022/09/25 10:00:04;;;;;;;26.10;5.80;;;;;;;21.78;59.46;101042.34;4973910;28;20030;-86
2022/09/25 10:02:53;;;;;;;22.90;4.07;;;;;;;21.75;59.92;101037.25;4932863;29;20515;-87
2022/09/25 10:05:36;;;;;;;30.92;5.05;;;;;;;21.94;60.29;101026.63;4932352;29;20040;-85
2022/09/25 10:08:02;;;;;;;72.10;6.75;;;;;;;22.15;58.32;101023.13;4932100;29;20067;-84
2022/09/25 10:10:54;;;;;;;22.25;4.85;;;;;;;22.19;58.05;101019.81;4898421;29;20075;-86
2022/09/25 10:13:31;;;;;;;74.00;7.18;;;;;;;22.22;57.66;101002.16;4894428;29;20041;-85
2022/09/25 10:16:21;;;;;;;64.63;7.07;;;;;;;22.48;56.83;101007.94;4894183;29;20520;-85
2022/09/25 10:19:10;;;;;;;13.57;4.75;;;;;;;22.15;56.75;100927.22;4895908;29;20524;-86
2022/09/25 10:21:42;;;;;;;18.13;5.22;;;;;;;22.79;55.54;101010.44;4895855;29;20041;-85
2022/09/25 10:24:07;;;;;;;23.83;5.05;;;;;;;22.68;54.48;100980.78;4894953;29;20047;-85
2022/09/25 10:26:35;;;;;;;12.77;4.70;;;;;;;22.84;54.11;100996.16;4896432;29;20044;-85
2022/09/25 10:29:03;;;;;;;88.13;7.25;;;;;;;22.61;51.86;100947.78;4897515;29;20039;-87
2022/09/25 10:31:36;;;;;;;32.03;4.72;;;;;;;22.70;51.66;100995.16;4881658;29;20107;-84
2022/09/25 10:34:05;;;;;;;39.35;7.25;;;;;;;22.76;51.98;100950.47;4897203;29;20047;-85
2022/09/25 10:36:37;;;;;;;18.48;4.28;;;;;;;23.02;51.97;100991.06;4896699;29;20514;-85
2022/09/25 10:39:05;;;;;;;8.48;3.53;;;;;;;23.00;52.11;100988.50;4909671;29;20043;-84
2022/09/25 10:41:41;;;;;;;12.82;4.50;;;;;;;23.17;51.32;100991.81;4936176;29;20040;-85
2022/09/25 10:44:27;;;;;;;11.48;3.63;;;;;;;23.20;50.93;100989.53;4937318;29;20023;-84
2022/09/25 10:52:43;;;;;;;;;;;;;;;23.11;45.45;100974.25;4936924;29;20074;-85
2022/09/25 10:55:19;;;;;;;41.67;4.72;;;;;;;22.72;44.91;100966.47;4936604;29;19934;-86
2022/09/25 10:57:46;;;;;;;36.30;5.25;;;;;;;22.25;45.69;100914.06;4937111;29;20024;-84
2022/09/25 11:00:21;;;;;;;18.08;3.90;;;;;;;22.32;45.70;100975.28;4938882;29;20185;-84
2022/09/25 11:02:52;;;;;;;16.75;4.00;;;;;;;22.22;46.40;100969.25;4939909;29;20055;-87
2022/09/25 11:05:25;;;;;;;15.18;3.90;;;;;;;22.10;46.81;100946.13;4941661;29;20369;-86
2022/09/25 11:07:53;;;;;;;130.45;8.48;;;;;;;22.10;45.60;100929.69;4948538;28;20036;-85
2022/09/25 11:10:26;;;;;;;32.65;4.25;;;;;;;22.38;44.04;100952.59;4960929;28;20463;-84
2022/09/25 11:12:51;;;;;;;;;;;;;;;22.48;44.18;100952.25;4961217;28;20071;-85
2022/09/25 11:15:19;;;;;;;79.65;5.90;;;;;;;22.41;44.10;100945.88;4953003;29;19910;-85
2022/09/25 11:17:49;;;;;;;65.05;6.82;;;;;;;22.52;44.68;100959.91;4940352;29;20147;-86
2022/09/25 11:20:18;;;;;;;59.80;7.05;;;;;;;22.45;44.15;100953.50;4937598;29;20032;-85
2022/09/25 11:22:51;;;;;;;21.08;4.07;;;;;;;22.43;44.69;100914.47;4938010;29;20475;-87
2022/09/25 11:25:40;;;;;;;44.67;6.20;;;;;;;22.53;44.17;100950.66;4938088;29;20051;-86
2022/09/25 11:28:26;;;;;;;151.15;17.15;;;;;;;22.46;44.79;100949.72;4941854;29;20027;-86
2022/09/25 11:31:31;;;;;;;11.02;3.88;;;;;;;22.50;44.84;100942.81;4938680;29;20028;-86
2022/09/25 11:34:10;;;;;;;38.80;4.50;;;;;;;22.46;45.76;100949.72;4896598;29;20043;-86
2022/09/25 11:36:48;;;;;;;44.70;5.75;;;;;;;22.49;46.45;100943.84;4898467;29;20052;-87
2022/09/25 11:42:42;;;;;;;43.35;5.38;;;;;;;22.68;46.13;100945.16;4921315;29;20068;-83
2022/09/25 11:45:35;;;;;;;93.85;7.55;;;;;;;22.52;46.21;100907.81;4921498;29;20040;-85
2022/09/25 11:48:20;;;;;;;49.25;4.95;;;;;;;22.11;46.81;100840.97;4897712;29;20065;-85
2022/09/25 11:50:54;;;;;;;116.28;10.45;;;;;;;22.58;47.21;100947.31;4899605;29;20045;-86
2022/09/25 11:54:12;;;;;;;16.17;4.07;;;;;;;22.53;48.53;100939.69;4898417;29;20036;-86
2022/09/25 11:57:09;;;;;;;23.55;4.07;;;;;;;22.60;48.80;100917.78;4751524;30;20157;-86
2022/09/25 12:00:18;;;;;;;16.85;4.50;;;;;;;22.47;49.41;100932.25;4750748;30;20059;-86
2022/09/25 12:02:52;;;;;;;16.58;5.05;;;;;;;22.30;50.22;100929.91;4716504;30;20658;-86
2022/09/25 12:05:46;;;;;;;99.93;9.10;;;;;;;22.34;50.96;100932.09;4715730;30;20403;-85
2022/09/25 12:08:27;;;;;;;38.67;6.53;;;;;;;22.42;51.08;100925.63;4715347;30;20187;-87
2022/09/25 12:11:32;;;;;;;12.02;4.10;;;;;;;22.64;51.28;100927.34;4716270;30;20048;-85
2022/09/25 12:14:26;;;;;;;35.22;5.53;;;;;;;22.43;51.33;100932.81;4698991;30;20495;-85
2022/09/25 12:17:13;;;;;;;25.02;4.63;;;;;;;22.50;51.77;100934.59;4630739;31;20062;-86
2022/09/25 12:20:22;;;;;;;9.70;4.25;;;;;;;22.53;51.45;100915.00;4630279;31;20112;-85
2022/09/25 12:23:30;;;;;;;120.32;8.65;;;;;;;22.44;51.43;100931.78;4601397;31;20115;-84
2022/09/25 12:26:11;;;;;;;29.50;5.13;;;;;;;21.93;52.33;100833.19;4608550;31;20799;-85
2022/09/25 12:29:02;;;;;;;22.27;4.88;;;;;;;22.57;51.62;100913.56;4599823;31;20078;-84